sensor_id;sensor_type;location;lat;lon;timestamp;pressure;altitude;pressure_sealevel;temperature;humidity
74310;BME280;62722;51.142;17.052;2023-02-23T00:01:19;100470.44;;;2.25;84.57
74310;BME280;62722;51.142;17.052;2023-02-23T00:03:48;100459.25;;;2.22;84.65
74310;BME280;62722;51.142;17.052;2023-02-23T00:06:18;100460.94;;;2.23;84.74
74310;BME280;62722;51.142;17.052;2023-02-23T00:08:45;100458.66;;;2.12;84.70
74310;BME280;62722;51.142;17.052;2023-02-23T00:11:15;100456.16;;;2.08;84.87
74310;BME280;62722;51.142;17.052;2023-02-23T00:13:44;100452.91;;;2.00;85.68
74310;BME280;62722;51.142;17.052;2023-02-23T00:16:16;100453.00;;;1.96;85.84
74310;BME280;62722;51.142;17.052;2023-02-23T00:18:46;100441.84;;;1.93;86.18
74310;BME280;62722;51.142;17.052;2023-02-23T00:21:19;100443.44;;;1.99;85.95
74310;BME280;62722;51.142;17.052;2023-02-23T00:23:48;100446.94;;;1.96;85.98
74310;BME280;62722;51.142;17.052;2023-02-23T00:26:17;100447.97;;;1.90;86.14
74310;BME280;62722;51.142;17.052;2023-02-23T00:28:46;100448.06;;;1.87;85.93
74310;BME280;62722;51.142;17.052;2023-02-23T00:31:16;100439.44;;;1.85;86.50
74310;BME280;62722;51.142;17.052;2023-02-23T00:33:43;100439.41;;;1.87;86.13
74310;BME280;62722;51.142;17.052;2023-02-23T00:36:13;100435.28;;;1.80;86.40
74310;BME280;62722;51.142;17.052;2023-02-23T00:38:42;100439.53;;;1.82;86.17
74310;BME280;62722;51.142;17.052;2023-02-23T00:41:12;100435.28;;;1.80;86.15
74310;BME280;62722;51.142;17.052;2023-02-23T00:43:42;100435.28;;;1.80;86.47
74310;BME280;62722;51.142;17.052;2023-02-23T00:46:13;100434.50;;;1.76;86.32
74310;BME280;62722;51.142;17.052;2023-02-23T00:48:42;100435.38;;;1.75;86.19
74310;BME280;62722;51.142;17.052;2023-02-23T00:51:11;100436.28;;;1.74;86.35
74310;BME280;62722;51.142;17.052;2023-02-23T00:53:39;100439.84;;;1.70;86.13
74310;BME280;62722;51.142;17.052;2023-02-23T00:56:10;100432.91;;;1.71;86.63
74310;BME280;62722;51.142;17.052;2023-02-23T00:58:38;100438.16;;;1.69;86.22
74310;BME280;62722;51.142;17.052;2023-02-23T01:01:06;100434.72;;;1.67;86.34
74310;BME280;62722;51.142;17.052;2023-02-23T01:03:34;100428.63;;;1.70;86.62
74310;BME280;62722;51.142;17.052;2023-02-23T01:06:05;100427.84;;;1.66;86.10
74310;BME280;62722;51.142;17.052;2023-02-23T01:08:33;100433.97;;;1.64;86.30
74310;BME280;62722;51.142;17.052;2023-02-23T01:11:05;100430.44;;;1.66;86.27
74310;BME280;62722;51.142;17.052;2023-02-23T01:13:36;100432.25;;;1.63;86.04
74310;BME280;62722;51.142;17.052;2023-02-23T01:16:04;100427.97;;;1.60;86.57
74310;BME280;62722;51.142;17.052;2023-02-23T01:18:32;100429.78;;;1.58;86.36
74310;BME280;62722;51.142;17.052;2023-02-23T01:21:01;100423.81;;;1.55;86.47
74310;BME280;62722;51.142;17.052;2023-02-23T01:23:30;100429.06;;;1.52;86.27
74310;BME280;62722;51.142;17.052;2023-02-23T01:25:58;100429.22;;;1.47;86.57
74310;BME280;62722;51.142;17.052;2023-02-23T01:28:25;100426.69;;;1.44;86.42
74310;BME280;62722;51.142;17.052;2023-02-23T01:30:54;100429.25;;;1.45;86.75
74310;BME280;62722;51.142;17.052;2023-02-23T01:33:21;100425.78;;;1.45;86.62
74310;BME280;62722;51.142;17.052;2023-02-23T01:35:56;100413.63;;;1.45;87.07
74310;BME280;62722;51.142;17.052;2023-02-23T01:38:23;100420.69;;;1.40;86.71
74310;BME280;62722;51.142;17.052;2023-02-23T01:40:51;100415.50;;;1.40;86.54
74310;BME280;62722;51.142;17.052;2023-02-23T01:43:20;100422.47;;;1.40;86.70
74310;BME280;62722;51.142;17.052;2023-02-23T01:45:54;100416.44;;;1.38;86.88
74310;BME280;62722;51.142;17.052;2023-02-23T01:48:24;100411.13;;;1.42;86.61
74310;BME280;62722;51.142;17.052;2023-02-23T01:50:57;100416.53;;;1.35;86.52
74310;BME280;62722;51.142;17.052;2023-02-23T01:53:28;100416.53;;;1.35;86.66
74310;BME280;62722;51.142;17.052;2023-02-23T01:55:58;100407.91;;;1.33;87.01
74310;BME280;62722;51.142;17.052;2023-02-23T01:58:27;100407.91;;;1.33;86.55
74310;BME280;62722;51.142;17.052;2023-02-23T02:00:58;100407.16;;;1.29;86.88
74310;BME280;62722;51.142;17.052;2023-02-23T02:03:32;100391.69;;;1.23;86.80
74310;BME280;62722;51.142;17.052;2023-02-23T02:06:02;100402.91;;;1.25;86.98
74310;BME280;62722;51.142;17.052;2023-02-23T02:08:31;100395.09;;;1.25;87.36
74310;BME280;62722;51.142;17.052;2023-02-23T02:11:00;100392.53;;;1.24;86.83
74310;BME280;62722;51.142;17.052;2023-02-23T02:13:34;100390.09;;;1.18;87.43
74310;BME280;62722;51.142;17.052;2023-02-23T02:16:23;100385.78;;;1.17;87.19
74310;BME280;62722;51.142;17.052;2023-02-23T02:19:18;100384.06;;;1.16;87.49
74310;BME280;62722;51.142;17.052;2023-02-23T02:28:26;100382.59;;;1.07;87.21
74310;BME280;62722;51.142;17.052;2023-02-23T02:37:23;100385.97;;;1.11;87.29
74310;BME280;62722;51.142;17.052;2023-02-23T02:39:58;100379.84;;;1.12;87.11
74310;BME280;62722;51.142;17.052;2023-02-23T02:42:49;100378.09;;;1.12;87.69
74310;BME280;62722;51.142;17.052;2023-02-23T02:45:25;100378.16;;;1.11;87.35
74310;BME280;62722;51.142;17.052;2023-02-23T02:47:58;100392.91;;;1.09;87.35
74310;BME280;62722;51.142;17.052;2023-02-23T02:50:40;100385.19;;;1.07;87.51
74310;BME280;62722;51.142;17.052;2023-02-23T02:53:15;100385.38;;;1.00;87.87
74310;BME280;62722;51.142;17.052;2023-02-23T02:55:46;100388.06;;;0.95;87.82
74310;BME280;62722;51.142;17.052;2023-02-23T02:58:16;100378.59;;;0.92;87.91
74310;BME280;62722;51.142;17.052;2023-02-23T03:00:46;100375.28;;;0.86;88.08
74310;BME280;62722;51.142;17.052;2023-02-23T03:03:34;100377.16;;;0.81;88.55
74310;BME280;62722;51.142;17.052;2023-02-23T03:06:24;100378.00;;;0.81;88.48
74310;BME280;62722;51.142;17.052;2023-02-23T03:09:20;100379.75;;;0.81;88.75
74310;BME280;62722;51.142;17.052;2023-02-23T03:12:10;100382.38;;;0.81;88.48
74310;BME280;62722;51.142;17.052;2023-02-23T03:15:06;100382.38;;;0.81;88.88
74310;BME280;62722;51.142;17.052;2023-02-23T03:17:59;100378.91;;;0.80;88.66
74310;BME280;62722;51.142;17.052;2023-02-23T03:20:51;100374.59;;;0.79;88.49
74310;BME280;62722;51.142;17.052;2023-02-23T03:23:41;100372.78;;;0.83;88.37
74310;BME280;62722;51.142;17.052;2023-02-23T03:26:35;100371.00;;;0.85;88.75
74310;BME280;62722;51.142;17.052;2023-02-23T03:29:28;100371.03;;;0.83;88.68
74310;BME280;62722;51.142;17.052;2023-02-23T03:32:18;100375.38;;;0.83;88.90
74310;BME280;62722;51.142;17.052;2023-02-23T03:35:10;100368.41;;;0.85;88.67
74310;BME280;62722;51.142;17.052;2023-02-23T03:38:02;100366.59;;;0.88;88.54
74310;BME280;62722;51.142;17.052;2023-02-23T03:40:50;100359.69;;;0.87;88.65
74310;BME280;62722;51.142;17.052;2023-02-23T03:43:43;100364.81;;;0.89;88.53
74310;BME280;62722;51.142;17.052;2023-02-23T03:46:30;100356.13;;;0.91;88.36
74310;BME280;62722;51.142;17.052;2023-02-23T03:49:17;100365.53;;;0.95;88.23
74310;BME280;62722;51.142;17.052;2023-02-23T03:52:09;100355.09;;;0.97;88.61
74310;BME280;62722;51.142;17.052;2023-02-23T03:54:58;100365.28;;;1.05;88.06
74310;BME280;62722;51.142;17.052;2023-02-23T03:57:47;100362.69;;;1.05;87.66
74310;BME280;62722;51.142;17.052;2023-02-23T04:00:38;100367.00;;;1.06;88.14
74310;BME280;62722;51.142;17.052;2023-02-23T04:03:26;100368.47;;;1.16;87.38
74310;BME280;62722;51.142;17.052;2023-02-23T04:06:16;100366.75;;;1.15;87.61
74310;BME280;62722;51.142;17.052;2023-02-23T04:09:05;100361.63;;;1.13;87.59
74310;BME280;62722;51.142;17.052;2023-02-23T04:11:55;100357.38;;;1.11;87.57
74310;BME280;62722;51.142;17.052;2023-02-23T04:14:47;100358.13;;;1.14;87.69
74310;BME280;62722;51.142;17.052;2023-02-23T04:17:17;100360.59;;;1.19;88.04
74310;BME280;62722;51.142;17.052;2023-02-23T04:19:52;100354.59;;;1.17;87.43
74310;BME280;62722;51.142;17.052;2023-02-23T04:22:20;100359.97;;;1.11;87.68
74310;BME280;62722;51.142;17.052;2023-02-23T04:24:47;100364.13;;;1.16;87.63
74310;BME280;62722;51.142;17.052;2023-02-23T04:27:14;100354.59;;;1.17;87.79
74310;BME280;62722;51.142;17.052;2023-02-23T04:29:42;100352.09;;;1.12;87.99
74310;BME280;62722;51.142;17.052;2023-02-23T04:32:12;100357.38;;;1.11;88.09
74310;BME280;62722;51.142;17.052;2023-02-23T04:34:41;100359.25;;;1.04;88.24
74310;BME280;62722;51.142;17.052;2023-02-23T04:37:09;100358.28;;;1.08;88.39
74310;BME280;62722;51.142;17.052;2023-02-23T04:39:36;100351.31;;;1.10;88.57
74310;BME280;62722;51.142;17.052;2023-02-23T04:42:04;100359.09;;;1.10;87.93
74310;BME280;62722;51.142;17.052;2023-02-23T04:44:31;100359.22;;;1.06;88.43
74310;BME280;62722;51.142;17.052;2023-02-23T04:46:59;100356.63;;;1.06;88.41
74310;BME280;62722;51.142;17.052;2023-02-23T04:49:26;100353.28;;;1.01;88.63
74310;BME280;62722;51.142;17.052;2023-02-23T04:51:55;100347.28;;;0.97;88.67
74310;BME280;62722;51.142;17.052;2023-02-23T04:54:22;100347.19;;;1.02;88.49
74310;BME280;62722;51.142;17.052;2023-02-23T04:56:49;100351.50;;;1.03;88.28
74310;BME280;62722;51.142;17.052;2023-02-23T04:59:17;100344.75;;;0.95;88.51
74310;BME280;62722;51.142;17.052;2023-02-23T05:01:44;100361.22;;;0.96;88.61
74310;BME280;62722;51.142;17.052;2023-02-23T05:04:12;100355.94;;;0.97;88.53
74310;BME280;62722;51.142;17.052;2023-02-23T05:06:39;100349.88;;;0.98;88.87
74310;BME280;62722;51.142;17.052;2023-02-23T05:09:09;100349.91;;;0.97;89.16
74310;BME280;62722;51.142;17.052;2023-02-23T05:11:36;100348.06;;;1.01;89.26
74310;BME280;62722;51.142;17.052;2023-02-23T05:14:05;100353.19;;;1.04;88.77
74310;BME280;62722;51.142;17.052;2023-02-23T05:16:32;100345.53;;;0.99;89.09
74310;BME280;62722;51.142;17.052;2023-02-23T05:18:59;100349.75;;;1.03;88.78
74310;BME280;62722;51.142;17.052;2023-02-23T05:21:26;100347.28;;;0.98;88.77
74310;BME280;62722;51.142;17.052;2023-02-23T05:23:54;100341.25;;;0.96;88.95
74310;BME280;62722;51.142;17.052;2023-02-23T05:26:23;100343.78;;;1.00;89.20
74310;BME280;62722;51.142;17.052;2023-02-23T05:28:50;100340.34;;;0.99;89.09
74310;BME280;62722;51.142;17.052;2023-02-23T05:31:19;100339.31;;;1.05;89.15
74310;BME280;62722;51.142;17.052;2023-02-23T05:33:46;100346.91;;;1.12;89.16
74310;BME280;62722;51.142;17.052;2023-02-23T05:36:15;100348.78;;;1.07;88.95
74310;BME280;62722;51.142;17.052;2023-02-23T05:38:45;100348.06;;;1.01;88.60
74310;BME280;62722;51.142;17.052;2023-02-23T05:41:13;100337.84;;;0.94;89.44
74310;BME280;62722;51.142;17.052;2023-02-23T05:43:43;100346.63;;;0.89;89.58
74310;BME280;62722;51.142;17.052;2023-02-23T05:46:14;100345.72;;;0.91;89.37
74310;BME280;62722;51.142;17.052;2023-02-23T05:48:42;100346.72;;;0.86;89.83
74310;BME280;62722;51.142;17.052;2023-02-23T05:51:11;100339.75;;;0.88;89.41
74310;BME280;62722;51.142;17.052;2023-02-23T05:53:39;100348.41;;;0.88;89.45
74310;BME280;62722;51.142;17.052;2023-02-23T05:56:10;100345.06;;;0.83;89.65
74310;BME280;62722;51.142;17.052;2023-02-23T05:58:38;100349.38;;;0.84;90.15
74310;BME280;62722;51.142;17.052;2023-02-23T06:01:07;100348.41;;;0.88;89.47
74310;BME280;62722;51.142;17.052;2023-02-23T06:03:34;100348.44;;;0.85;89.68
74310;BME280;62722;51.142;17.052;2023-02-23T06:06:02;100339.66;;;0.91;90.05
74310;BME280;62722;51.142;17.052;2023-02-23T06:08:29;100346.69;;;0.87;89.84
74310;BME280;62722;51.142;17.052;2023-02-23T06:10:57;100351.03;;;0.85;90.26
74310;BME280;62722;51.142;17.052;2023-02-23T06:13:25;100350.91;;;0.91;90.13
74310;BME280;62722;51.142;17.052;2023-02-23T06:15:52;100350.09;;;0.89;90.07
74310;BME280;62722;51.142;17.052;2023-02-23T06:18:21;100344.75;;;0.95;90.08
74310;BME280;62722;51.142;17.052;2023-02-23T06:20:49;100350.00;;;0.92;89.84
74310;BME280;62722;51.142;17.052;2023-02-23T06:23:16;100343.97;;;0.92;90.11
74310;BME280;62722;51.142;17.052;2023-02-23T06:25:44;100341.41;;;0.90;89.57
74310;BME280;62722;51.142;17.052;2023-02-23T06:28:12;100347.41;;;0.92;89.59
74310;BME280;62722;51.142;17.052;2023-02-23T06:30:40;100347.06;;;1.06;90.00
74310;BME280;62722;51.142;17.052;2023-02-23T06:33:07;100351.34;;;1.09;89.38
74310;BME280;62722;51.142;17.052;2023-02-23T06:35:36;100352.19;;;1.09;89.48
74310;BME280;62722;51.142;17.052;2023-02-23T06:38:04;100354.75;;;1.11;89.59
74310;BME280;62722;51.142;17.052;2023-02-23T06:40:32;100352.09;;;1.14;89.52
74310;BME280;62722;51.142;17.052;2023-02-23T06:42:59;100351.16;;;1.15;88.90
74310;BME280;62722;51.142;17.052;2023-02-23T06:45:28;100356.38;;;1.15;89.10
74310;BME280;62722;51.142;17.052;2023-02-23T06:47:56;100350.00;;;1.26;89.66
74310;BME280;62722;51.142;17.052;2023-02-23T06:50:23;100350.84;;;1.27;88.98
74310;BME280;62722;51.142;17.052;2023-02-23T06:52:52;100354.19;;;1.32;88.82
74310;BME280;62722;51.142;17.052;2023-02-23T06:55:22;100347.06;;;1.40;88.56
74310;BME280;62722;51.142;17.052;2023-02-23T06:57:50;100346.00;;;1.47;88.60
74310;BME280;62722;51.142;17.052;2023-02-23T07:00:19;100353.63;;;1.53;88.11
74310;BME280;62722;51.142;17.052;2023-02-23T07:02:47;100353.44;;;1.59;88.03
74310;BME280;62722;51.142;17.052;2023-02-23T07:05:14;100349.84;;;1.63;87.75
74310;BME280;62722;51.142;17.052;2023-02-23T07:07:42;100343.13;;;1.56;87.58
74310;BME280;62722;51.142;17.052;2023-02-23T07:10:11;100345.81;;;1.53;87.34
74310;BME280;62722;51.142;17.052;2023-02-23T07:12:39;100349.28;;;1.54;87.50
74310;BME280;62722;51.142;17.052;2023-02-23T07:15:07;100347.41;;;1.59;87.84
74310;BME280;62722;51.142;17.052;2023-02-23T07:17:35;100352.72;;;1.54;87.37
74310;BME280;62722;51.142;17.052;2023-02-23T07:20:03;100348.31;;;1.56;87.57
74310;BME280;62722;51.142;17.052;2023-02-23T07:22:30;100343.03;;;1.59;88.16
74310;BME280;62722;51.142;17.052;2023-02-23T07:24:58;100344.59;;;1.66;87.50
74310;BME280;62722;51.142;17.052;2023-02-23T07:27:27;100347.91;;;1.71;87.76
74310;BME280;62722;51.142;17.052;2023-02-23T07:29:55;100342.66;;;1.73;87.59
74310;BME280;62722;51.142;17.052;2023-02-23T07:32:22;100343.34;;;1.79;87.10
74310;BME280;62722;51.142;17.052;2023-02-23T07:34:49;100338.00;;;1.84;87.24
74310;BME280;62722;51.142;17.052;2023-02-23T07:37:17;100331.84;;;1.86;87.20
74310;BME280;62722;51.142;17.052;2023-02-23T07:39:44;100336.81;;;1.95;86.48
74310;BME280;62722;51.142;17.052;2023-02-23T07:42:12;100329.75;;;1.99;86.54
74310;BME280;62722;51.142;17.052;2023-02-23T07:44:40;100332.25;;;2.02;86.64
74310;BME280;62722;51.142;17.052;2023-02-23T07:47:08;100327.00;;;2.04;86.47
74310;BME280;62722;51.142;17.052;2023-02-23T07:49:35;100320.75;;;2.09;86.31
74310;BME280;62722;51.142;17.052;2023-02-23T07:52:03;100324.09;;;2.14;86.09
74310;BME280;62722;51.142;17.052;2023-02-23T07:54:30;100315.34;;;2.17;85.61
74310;BME280;62722;51.142;17.052;2023-02-23T07:56:57;100319.53;;;2.21;85.54
74310;BME280;62722;51.142;17.052;2023-02-23T07:59:25;100325.44;;;2.26;85.59
74310;BME280;62722;51.142;17.052;2023-02-23T08:01:54;100321.00;;;2.29;85.64
74310;BME280;62722;51.142;17.052;2023-02-23T08:04:24;100318.16;;;2.37;85.38
74310;BME280;62722;51.142;17.052;2023-02-23T08:06:51;100319.66;;;2.44;85.48
74310;BME280;62722;51.142;17.052;2023-02-23T08:09:19;100312.47;;;2.52;84.79
74310;BME280;62722;51.142;17.052;2023-02-23T08:11:47;100318.28;;;2.60;84.45
74310;BME280;62722;51.142;17.052;2023-02-23T08:14:14;100319.09;;;2.62;84.13
74310;BME280;62722;51.142;17.052;2023-02-23T08:16:42;100329.44;;;2.65;84.47
74310;BME280;62722;51.142;17.052;2023-02-23T08:19:10;100322.50;;;2.64;84.42
74310;BME280;62722;51.142;17.052;2023-02-23T08:21:38;100311.97;;;2.67;84.17
74310;BME280;62722;51.142;17.052;2023-02-23T08:24:05;100313.53;;;2.73;84.47
74310;BME280;62722;51.142;17.052;2023-02-23T08:26:34;100319.44;;;2.78;84.54
74310;BME280;62722;51.142;17.052;2023-02-23T08:29:03;100313.28;;;2.80;83.78
74310;BME280;62722;51.142;17.052;2023-02-23T08:31:31;100316.41;;;2.91;83.59
74310;BME280;62722;51.142;17.052;2023-02-23T08:33:58;100317.78;;;3.02;83.89
74310;BME280;62722;51.142;17.052;2023-02-23T08:36:27;100313.16;;;3.10;83.35
74310;BME280;62722;51.142;17.052;2023-02-23T08:38:54;100314.69;;;3.15;82.93
74310;BME280;62722;51.142;17.052;2023-02-23T08:41:22;100315.31;;;3.22;82.83
74310;BME280;62722;51.142;17.052;2023-02-23T08:43:50;100311.59;;;3.29;82.45
74310;BME280;62722;51.142;17.052;2023-02-23T08:46:18;100314.00;;;3.35;82.64
74310;BME280;62722;51.142;17.052;2023-02-23T08:48:45;100312.84;;;3.43;82.29
74310;BME280;62722;51.142;17.052;2023-02-23T08:51:13;100309.94;;;3.51;82.28
74310;BME280;62722;51.142;17.052;2023-02-23T08:53:42;100301.09;;;3.55;81.91
74310;BME280;62722;51.142;17.052;2023-02-23T08:56:09;100306.16;;;3.60;82.00
74310;BME280;62722;51.142;17.052;2023-02-23T08:58:37;100305.94;;;3.66;81.21
74310;BME280;62722;51.142;17.052;2023-02-23T09:01:05;100308.34;;;3.70;81.49
74310;BME280;62722;51.142;17.052;2023-02-23T09:03:33;100299.50;;;3.74;81.16
74310;BME280;62722;51.142;17.052;2023-02-23T09:06:06;100294.91;;;3.81;81.38
74310;BME280;62722;51.142;17.052;2023-02-23T09:08:33;100298.09;;;3.89;81.23
74310;BME280;62722;51.142;17.052;2023-02-23T09:11:03;100293.44;;;3.97;80.85
74310;BME280;62722;51.142;17.052;2023-02-23T09:13:30;100291.44;;;4.04;80.20
74310;BME280;62722;51.142;17.052;2023-02-23T09:15:57;100287.91;;;4.05;80.80
74310;BME280;62722;51.142;17.052;2023-02-23T09:18:25;100284.28;;;4.09;80.81
74310;BME280;62722;51.142;17.052;2023-02-23T09:20:54;100285.63;;;4.19;80.21
74310;BME280;62722;51.142;17.052;2023-02-23T09:23:21;100278.47;;;4.24;80.26
74310;BME280;62722;51.142;17.052;2023-02-23T09:25:50;100290.38;;;4.31;80.14
74310;BME280;62722;51.142;17.052;2023-02-23T09:28:19;100284.66;;;4.43;80.25
74310;BME280;62722;51.142;17.052;2023-02-23T09:30:47;100289.50;;;4.52;80.43
74310;BME280;62722;51.142;17.052;2023-02-23T09:33:14;100290.81;;;4.62;79.05
74310;BME280;62722;51.142;17.052;2023-02-23T09:35:42;100276.72;;;4.66;79.79
74310;BME280;62722;51.142;17.052;2023-02-23T09:38:09;100276.50;;;4.72;79.45
74310;BME280;62722;51.142;17.052;2023-02-23T09:40:44;100281.41;;;4.80;79.21
74310;BME280;62722;51.142;17.052;2023-02-23T09:43:14;100277.41;;;4.91;79.14
74310;BME280;62722;51.142;17.052;2023-02-23T09:45:49;100266.41;;;5.04;78.49
74310;BME280;62722;51.142;17.052;2023-02-23T09:48:18;100265.91;;;5.16;77.97
74310;BME280;62722;51.142;17.052;2023-02-23T09:50:49;100259.63;;;5.20;78.21
74310;BME280;62722;51.142;17.052;2023-02-23T09:53:28;100259.63;;;5.20;78.71
74310;BME280;62722;51.142;17.052;2023-02-23T09:55:58;100256.72;;;5.26;78.16
74310;BME280;62722;51.142;17.052;2023-02-23T09:58:27;100249.25;;;5.37;77.40
74310;BME280;62722;51.142;17.052;2023-02-23T10:01:36;100255.84;;;5.46;77.45
74310;BME280;62722;51.142;17.052;2023-02-23T10:04:16;100253.03;;;5.50;77.59
74310;BME280;62722;51.142;17.052;2023-02-23T10:06:50;100254.38;;;5.59;77.34
74310;BME280;62722;51.142;17.052;2023-02-23T10:09:25;100256.03;;;5.61;77.65
74310;BME280;62722;51.142;17.052;2023-02-23T10:11:59;100246.16;;;5.66;77.19
74310;BME280;62722;51.142;17.052;2023-02-23T10:14:40;100249.34;;;5.73;77.27
74310;BME280;62722;51.142;17.052;2023-02-23T10:17:18;100254.81;;;5.68;77.96
74310;BME280;62722;51.142;17.052;2023-02-23T10:19:52;100250.09;;;5.76;78.01
74310;BME280;62722;51.142;17.052;2023-02-23T10:22:24;100236.53;;;5.87;78.17
74310;BME280;62722;51.142;17.052;2023-02-23T10:24:56;100239.56;;;5.97;77.34
74310;BME280;62722;51.142;17.052;2023-02-23T10:27:29;100235.56;;;6.07;76.83
74310;BME280;62722;51.142;17.052;2023-02-23T10:29:59;100232.19;;;6.05;77.32
74310;BME280;62722;51.142;17.052;2023-02-23T10:32:38;100233.53;;;6.13;76.81
74310;BME280;62722;51.142;17.052;2023-02-23T10:35:10;100223.66;;;6.18;76.75
74310;BME280;62722;51.142;17.052;2023-02-23T10:37:38;100219.81;;;6.25;76.59
74310;BME280;62722;51.142;17.052;2023-02-23T10:40:11;100220.44;;;6.30;76.24
74310;BME280;62722;51.142;17.052;2023-02-23T10:42:40;100222.69;;;6.38;76.37
74310;BME280;62722;51.142;17.052;2023-02-23T10:45:12;100226.66;;;6.47;75.88
74310;BME280;62722;51.142;17.052;2023-02-23T10:47:52;100217.47;;;6.55;75.83
74310;BME280;62722;51.142;17.052;2023-02-23T10:50:21;100205.91;;;6.59;75.37
74310;BME280;62722;51.142;17.052;2023-02-23T10:52:54;100211.78;;;6.64;76.04
74310;BME280;62722;51.142;17.052;2023-02-23T10:55:24;100202.97;;;6.65;76.10
74310;BME280;62722;51.142;17.052;2023-02-23T10:58:09;100213.16;;;6.71;75.62
74310;BME280;62722;51.142;17.052;2023-02-23T11:00:50;100206.91;;;6.74;74.46
74310;BME280;62722;51.142;17.052;2023-02-23T11:03:25;100206.03;;;6.73;74.50
74310;BME280;62722;51.142;17.052;2023-02-23T11:05:54;100192.88;;;6.75;75.00
74310;BME280;62722;51.142;17.052;2023-02-23T11:08:25;100193.72;;;6.75;74.97
74310;BME280;62722;51.142;17.052;2023-02-23T11:10:59;100183.28;;;6.74;75.23
74310;BME280;62722;51.142;17.052;2023-02-23T11:13:28;100183.81;;;6.80;74.82
74310;BME280;62722;51.142;17.052;2023-02-23T11:16:00;100173.81;;;6.71;75.79
74310;BME280;62722;51.142;17.052;2023-02-23T11:18:31;100177.88;;;6.77;76.14
74310;BME280;62722;51.142;17.052;2023-02-23T11:20:58;100175.94;;;6.80;75.34
74310;BME280;62722;51.142;17.052;2023-02-23T11:23:28;100168.72;;;6.85;75.27
74310;BME280;62722;51.142;17.052;2023-02-23T11:25:59;100174.72;;;6.88;75.18
74310;BME280;62722;51.142;17.052;2023-02-23T11:28:30;100157.13;;;6.90;75.00
74310;BME280;62722;51.142;17.052;2023-02-23T11:31:02;100166.53;;;6.94;74.80
74310;BME280;62722;51.142;17.052;2023-02-23T11:33:32;100161.97;;;6.97;75.09
74310;BME280;62722;51.142;17.052;2023-02-23T11:36:15;100156.22;;;6.91;75.27
74310;BME280;62722;51.142;17.052;2023-02-23T11:38:44;100155.88;;;6.97;74.99
74310;BME280;62722;51.142;17.052;2023-02-23T11:41:20;100155.03;;;6.96;75.06
74310;BME280;62722;51.142;17.052;2023-02-23T11:43:49;100156.03;;;6.94;75.90
74310;BME280;62722;51.142;17.052;2023-02-23T11:46:18;100147.09;;;6.98;75.55
74310;BME280;62722;51.142;17.052;2023-02-23T11:48:51;100137.34;;;7.00;75.43
74310;BME280;62722;51.142;17.052;2023-02-23T11:51:25;100132.72;;;7.05;75.12
74310;BME280;62722;51.142;17.052;2023-02-23T11:53:55;100131.53;;;7.10;74.57
74310;BME280;62722;51.142;17.052;2023-02-23T11:56:23;100126.28;;;7.10;74.51
74310;BME280;62722;51.142;17.052;2023-02-23T11:58:53;100130.53;;;7.13;75.29
74310;BME280;62722;51.142;17.052;2023-02-23T12:01:25;100132.03;;;7.17;75.54
74310;BME280;62722;51.142;17.052;2023-02-23T12:04:02;100124.69;;;7.23;75.19
74310;BME280;62722;51.142;17.052;2023-02-23T12:06:31;100123.44;;;7.30;74.91
74310;BME280;62722;51.142;17.052;2023-02-23T12:09:05;100120.41;;;7.38;74.81
74310;BME280;62722;51.142;17.052;2023-02-23T12:11:41;100120.22;;;7.41;74.43
74310;BME280;62722;51.142;17.052;2023-02-23T12:14:17;100117.84;;;7.52;74.07
74310;BME280;62722;51.142;17.052;2023-02-23T12:16:50;100119.47;;;7.55;74.41
74310;BME280;62722;51.142;17.052;2023-02-23T12:19:24;100113.78;;;7.62;74.86
74310;BME280;62722;51.142;17.052;2023-02-23T12:21:59;100113.84;;;7.76;74.22
74310;BME280;62722;51.142;17.052;2023-02-23T12:24:38;100106.56;;;7.81;74.24
74310;BME280;62722;51.142;17.052;2023-02-23T12:27:10;100101.91;;;7.87;74.00
74310;BME280;62722;51.142;17.052;2023-02-23T12:32:27;100088.47;;;8.07;73.34
74310;BME280;62722;51.142;17.052;2023-02-23T12:35:03;100090.34;;;8.05;73.55
74310;BME280;62722;51.142;17.052;2023-02-23T12:37:37;100092.69;;;8.09;74.26
74310;BME280;62722;51.142;17.052;2023-02-23T12:40:15;100082.88;;;8.13;74.47
74310;BME280;62722;51.142;17.052;2023-02-23T12:42:49;100079.75;;;8.20;74.39
74310;BME280;62722;51.142;17.052;2023-02-23T12:45:24;100079.41;;;8.26;74.78
74310;BME280;62722;51.142;17.052;2023-02-23T12:48:01;100083.31;;;8.35;74.36
74310;BME280;62722;51.142;17.052;2023-02-23T12:50:34;100079.22;;;8.45;73.54
74310;BME280;62722;51.142;17.052;2023-02-23T12:53:08;100076.97;;;8.53;73.75
74310;BME280;62722;51.142;17.052;2023-02-23T12:55:49;100073.38;;;8.54;74.51
74310;BME280;62722;51.142;17.052;2023-02-23T12:58:25;100074.16;;;8.56;74.14
74310;BME280;62722;51.142;17.052;2023-02-23T13:00:58;100064.00;;;8.64;73.69
74310;BME280;62722;51.142;17.052;2023-02-23T13:03:55;100059.50;;;8.66;73.84
74310;BME280;62722;51.142;17.052;2023-02-23T13:06:33;100057.53;;;8.70;73.64
74310;BME280;62722;51.142;17.052;2023-02-23T13:09:16;100055.09;;;8.67;74.13
74310;BME280;62722;51.142;17.052;2023-02-23T13:12:05;100062.78;;;8.70;74.55
74310;BME280;62722;51.142;17.052;2023-02-23T13:14:35;100050.09;;;8.76;74.06
74310;BME280;62722;51.142;17.052;2023-02-23T13:17:10;100056.00;;;8.80;73.58
74310;BME280;62722;51.142;17.052;2023-02-23T13:19:48;100047.75;;;8.86;74.42
74310;BME280;62722;51.142;17.052;2023-02-23T13:22:27;100042.94;;;8.93;73.76
74310;BME280;62722;51.142;17.052;2023-02-23T13:24:59;100041.81;;;8.97;73.69
74310;BME280;62722;51.142;17.052;2023-02-23T13:27:33;100039.66;;;9.03;73.52
74310;BME280;62722;51.142;17.052;2023-02-23T13:30:02;100036.94;;;9.05;74.05
74310;BME280;62722;51.142;17.052;2023-02-23T13:32:32;100040.75;;;9.13;73.23